Disclaimer

Please do not use the information listed here in-flight or in-navigation, as they are not provided to us by the airports but are provided by volunteers, so they might be outdated.

Search


Regions


Airport information page

Radio informations:
Tower (TWR) - 118.1 MHz
Ground (GND) - 289.6 MHz
Automatic Terminal Information Service (ATIS) - 127.5 MHz
Approach (APP) - 118.1 MHz

Airport informations:
Latitude: 03° 46' 31.40" N
Longitude: 103° 12' 32.60" E
Elevation: 58 feet - 18 meters
Operating hours: Remarks
Operating agency: Military
Timezone: UTC+8
Fuel: N/A

Runway information:
18/36 - 9200 x 150 feet< - >2804 x 46 meters

Recent METARs:
WMKD 211600Z VRB01KT 9999 FEW024 SCT160 BKN280 25/24 Q1012 NOSIG
WMKD 211600Z VRB01KT 9999 FEW024 SCT160 BKN280 25/24 Q1012 NOSIG
WMKD 211700Z 00000KT 9999 FEW024 BKN280 25/24 Q1011 NOSIG

Airport on the map: